Latest Coastal Weather Observations for Dennes Point

IDT60701

Issued at 3:52 pm EDT Tuesday 17 January 2017 (issued every 10 minutes, with the page automatically refreshed every 10 minutes)

About coastal observations | Map of coastal stations | Coastal observations for TAS | Marine services | Other Formats
Station Details ID: 094255 Name: DENNES POINT Lat: -43.06 Lon: 147.36 Height: 5.67 m
Data from the previous 72 hours. | See also: Recent months at Dennes Point
Date/Time
EDT
Temp
°C
Wind Pressure Rain since
9am
mm
Weather Cloud Vis
km
Sea
Height
m
Swell
Dir  Spd
kts
Gust
kts
hPa Trend Height
m
Period
s
Dir
17/03:30pm 18.2 ESE 10 15 1002.5 - 0.0 - - - - - - -
17/03:00pm 19.1 ESE 8 11 1002.4 - 0.0 - - - - - - -
17/02:30pm 18.9 ESE 10 13 1002.6 - 0.0 - - - - - - -
17/02:00pm 18.6 ESE 9 11 1002.7 - 0.0 - - - - - - -
17/01:30pm 19.3 ESE 10 13 1002.8 - 0.0 - - - - - - -
17/01:00pm 20.1 ESE 10 13 1003.0 - 0.0 - - - - - - -
17/12:30pm 21.6 ESE 10 13 1003.1 - 0.0 - - - - - - -
17/12:00pm 21.3 ESE 6 8 1003.4 - 0.0 - - - - - - -
17/11:30am 19.9 ENE 5 8 1003.7 - 0.0 - - - - - - -
17/11:00am 20.0 E 4 6 1003.9 - 0.0 - - - - - - -
17/10:30am 19.7 ENE 4 7 1004.2 - 0.0 - - - - - - -
17/10:00am 19.7 NE 3 5 1004.6 - 0.0 - - - - - - -
17/09:30am 18.2 N 3 4 1005.1 - 0.0 - - - - - - -
17/09:00am 17.2 N 6 7 1005.2 - 0.0 - - - - - - -
17/08:30am 16.4 NNW 9 10 1005.6 - 0.0 - - - - - - -
17/08:00am 17.7 WNW 8 11 1005.4 - 0.0 - - - - - - -
17/07:30am 15.4 SSW 2 5 1005.5 - 0.0 - - - - - - -
17/07:00am 13.6 SSW 5 6 1005.0 - 0.0 - - - - - - -
17/06:30am 12.9 SSW 5 7 1004.9 - 0.0 - - - - - - -
17/06:00am 12.3 SW 5 7 1004.3 - 0.0 - - - - - - -
17/05:30am 12.1 SSW 7 8 1004.1 - 0.0 - - - - - - -
17/05:00am 12.2 SSW 5 6 1003.7 - 0.0 - - - - - - -
17/04:30am 12.9 SW 5 7 1003.5 - 0.0 - - - - - - -
17/04:00am 13.7 SSW 6 8 1003.4 - 0.0 - - - - - - -
17/03:30am 14.2 SSW 7 10 1003.6 - 0.0 - - - - - - -
17/03:00am 14.4 S 3 5 1003.7 - 0.0 - - - - - - -
17/02:30am 15.4 WNW 2 4 1003.7 - 0.0 - - - - - - -
17/02:00am 14.4 WSW 2 5 1003.8 - 0.0 - - - - - - -
17/01:30am 15.2 WSW 3 5 1004.2 - 0.0 - - - - - - -
17/01:00am 15.8 NE 3 4 1004.4 - 0.0 - - - - - - -
17/12:30am 15.9 NW 3 6 1004.8 - 0.0 - - - - - - -
17/12:00am 17.0 WNW 8 11 1005.2 - 0.0 - - - - - - -
 
Date/Time
EDT
Temp
°C
Wind Pressure Rain since
9am
mm
Weather Cloud Vis
km
Sea
Height
m
Swell
Dir  Spd
kts
Gust
kts
hPa Trend Height
m
Period
s
Dir
16/11:30pm 17.4 WNW 10 12 1005.4 - 0.0 - - - - - - -
16/11:00pm 16.2 W 9 12 1005.5 - 0.0 - - - - - - -
16/10:30pm 15.2 WSW 6 9 1005.9 - 0.0 - - - - - - -
16/10:00pm 14.3 WSW 2 5 1006.1 - 0.0 - - - - - - -
16/09:30pm 14.7 W 3 4 1006.2 - 0.0 - - - - - - -
16/09:00pm 15.8 SSW 2 5 1006.1 - 0.0 - - - - - - -
16/08:30pm 17.2 SW 3 4 1006.1 - 0.0 - - - - - - -
16/08:00pm 18.5 WSW 4 5 1006.0 - 0.0 - - - - - - -
16/07:30pm 19.0 WSW 2 4 1006.0 - 0.0 - - - - - - -
16/07:00pm 19.0 SW 7 9 1006.1 - 0.0 - - - - - - -
16/06:30pm 19.9 WSW 4 8 1006.2 - 0.0 - - - - - - -
16/06:00pm 19.5 S 6 10 1006.5 - 0.0 - - - - - - -
16/05:30pm 18.6 SE 9 12 1006.7 - 0.0 - - - - - - -
16/05:00pm 18.0 ESE 12 16 1007.0 - 0.0 - - - - - - -
16/04:30pm 18.2 ESE 13 18 1007.2 - 0.0 - - - - - - -
16/04:00pm 21.1 E 7 9 1007.5 - 0.0 - - - - - - -
16/03:30pm 21.2 ESE 9 10 1007.7 - 0.0 - - - - - - -
16/03:00pm 20.6 E 7 9 1008.2 - 0.0 - - - - - - -
16/02:30pm 20.2 E 9 11 1008.5 - 0.0 - - - - - - -
16/02:00pm 19.5 ESE 11 12 1008.9 - 0.0 - - - - - - -
16/01:30pm 19.4 ESE 10 13 1009.3 - 0.0 - - - - - - -
16/01:00pm 20.1 E 4 6 1009.5 - 0.0 - - - - - - -
16/12:30pm 20.1 ENE 4 5 1009.9 - 0.0 - - - - - - -
16/12:00pm 19.9 ENE 5 6 1010.0 - 0.0 - - - - - - -
16/11:30am 19.7 NE 6 7 1010.2 - 0.0 - - - - - - -
16/11:00am 19.0 NE 4 6 1010.5 - 0.0 - - - - - - -
16/10:30am 18.2 NNW 5 10 1010.7 - 0.0 - - - - - - -
16/10:00am 18.1 WSW 6 9 1010.8 - 0.0 - - - - - - -
16/09:30am 18.2 WSW 7 9 1010.9 - 0.0 - - - - - - -
16/09:00am 17.6 WSW 4 8 1010.8 - 0.0 - - - - - - -
16/08:30am 16.9 NNE 3 5 1010.9 - 0.0 - - - - - - -
16/08:00am 16.1 NW 1 3 1010.8 - 0.0 - - - - - - -
16/07:30am 16.2 WNW 3 4 1010.6 - 0.0 - - - - - - -
16/07:00am 14.6 W 8 10 1010.4 - 0.0 - - - - - - -
16/06:30am 14.0 WSW 9 11 1010.0 - 0.0 - - - - - - -
16/06:00am 14.3 SW 10 18 1010.1 - 0.0 - - - - - - -
16/05:30am 14.5 SSW 7 11 1010.0 - 0.0 - - - - - - -
16/05:00am 14.9 W 6 9 1009.8 - 0.0 - - - - - - -
16/04:30am 14.9 WNW 7 11 1009.5 - 0.0 - - - - - - -
16/04:00am 14.8 NW 5 8 1009.4 - 0.0 - - - - - - -
16/03:30am 14.6 NW 4 5 1009.6 - 0.0 - - - - - - -
16/03:00am 14.6 NW 6 9 1009.8 - 0.0 - - - - - - -
16/02:30am 14.3 W 6 8 1010.1 - 0.0 - - - - - - -
16/02:00am 14.3 W 7 11 1010.2 - 0.0 - - - - - - -
16/01:30am 14.8 W 10 15 1010.6 - 0.0 - - - - - - -
16/01:00am 15.1 WNW 13 16 1010.9 - 0.0 - - - - - - -
16/12:30am 15.2 WNW 11 15 1011.1 - 0.0 - - - - - - -
16/12:00am 15.0 WNW 9 10 1011.2 - 0.0 - - - - - - -
 
Date/Time
EDT
Temp
°C
Wind Pressure Rain since
9am
mm
Weather Cloud Vis
km
Sea
Height
m
Swell
Dir  Spd
kts
Gust
kts
hPa Trend Height
m
Period
s
Dir
15/11:30pm 15.2 WNW 10 14 1011.4 - 0.0 - - - - - - -
15/11:00pm 15.1 WNW 7 11 1011.7 - 0.0 - - - - - - -
15/10:30pm 15.4 WNW 6 11 1012.0 - 0.0 - - - - - - -
15/10:00pm 15.2 WNW 6 9 1012.1 - 0.0 - - - - - - -
15/09:30pm 15.5 WNW 6 11 1012.1 - 0.0 - - - - - - -
15/09:00pm 15.4 WNW 7 12 1012.1 - 0.0 - - - - - - -
15/08:30pm 15.7 W 10 15 1011.9 - 0.0 - - - - - - -
15/08:00pm 16.0 W 14 18 1012.0 - 0.0 - - - - - - -
15/07:30pm 16.6 W 15 21 1011.8 - 0.0 - - - - - - -
15/07:00pm 16.9 WNW 15 22 1011.6 - 0.0 - - - - - - -
15/06:30pm 17.6 W 13 20 1011.6 - 0.0 - - - - - - -
15/06:00pm 17.4 WNW 14 21 1011.8 - 0.0 - - - - - - -
15/05:30pm 18.3 W 10 17 1011.6 - 0.0 - - - - - - -
15/05:00pm 18.1 WSW 15 19 1011.5 - 0.0 - - - - - - -
15/04:30pm 18.3 WSW 16 23 1011.7 - 0.0 - - - - - - -
15/04:00pm 18.6 W 15 21 1011.8 - 0.0 - - - - - - -
15/03:30pm 18.6 WNW 14 19 1011.6 - 0.0 - - - - - - -
15/03:00pm 19.8 W 13 18 1011.7 - 0.0 - - - - - - -
15/02:30pm 19.6 W 16 21 1011.8 - 0.0 - - - - - - -
15/02:00pm 20.1 WSW 13 19 1011.9 - 0.0 - - - - - - -
15/01:30pm 19.7 W 16 21 1012.2 - 0.0 - - - - - - -
15/01:00pm 18.3 WSW 15 19 1012.0 - 0.0 - - - - - - -
15/12:30pm 17.8 W 15 20 1012.0 - 0.0 - - - - - - -
15/12:00pm 18.2 W 18 25 1011.9 - 0.0 - - - - - - -
15/11:30am 16.1 W 14 22 1012.2 - 0.0 - - - - - - -
15/11:00am 16.5 W 12 17 1012.4 - 0.0 - - - - - - -
15/10:30am 15.8 W 12 17 1012.5 - 0.0 - - - - - - -
15/10:00am 16.4 W 11 18 1012.1 - 0.0 - - - - - - -
15/09:30am 15.1 W 13 18 1011.9 - 0.0 - - - - - - -
15/09:00am 14.7 W 11 18 1011.8 - 0.2 - - - - - - -
15/08:30am 15.1 W 15 26 1011.6 - 0.2 - - - - - - -
15/08:25am 15.3 W 15 26 1011.5 - 0.2 - - - - - - -
15/08:00am 15.1 WSW 14 19 1011.4 - 0.2 - - - - - - -
15/07:43am 13.9 W 16 27 1011.1 - 0.2 - - - - - - -
15/07:30am 14.3 W 13 19 1011.2 - 0.2 - - - - - - -
15/07:00am 13.2 WSW 12 17 1010.9 - 0.2 - - - - - - -
15/06:30am 12.9 W 10 15 1010.3 - 0.2 - - - - - - -
15/06:00am 12.9 WSW 13 20 1009.8 - 0.2 - - - - - - -
15/05:30am 12.6 W 11 16 1009.4 - 0.2 - - - - - - -
15/05:00am 12.7 W 14 22 1009.0 - 0.2 - - - - - - -
15/04:30am 12.4 WSW 16 21 1008.6 - 0.2 - - - - - - -
15/04:00am 12.4 W 19 26 1008.1 - 0.2 - - - - - - -
15/03:30am 12.5 WSW 18 30 1007.9 - 0.2 - - - - - - -
15/03:13am 12.7 WSW 19 31 1007.8 - 0.2 - - - - - - -
15/03:00am 12.6 W 16 22 1007.9 - 0.2 - - - - - - -
15/02:52am 12.6 W 17 28 1007.8 - 0.2 - - - - - - -
15/02:30am 12.6 W 18 27 1008.0 - 0.2 - - - - - - -
15/02:07am 12.8 WSW 15 25 1007.8 - 0.2 - - - - - - -
15/02:00am 12.9 WSW 16 26 1007.9 - 0.2 - - - - - - -
15/01:52am 12.9 WSW 15 26 1007.9 - 0.2 - - - - - - -
15/01:30am 13.0 WSW 13 21 1007.8 - 0.2 - - - - - - -
15/01:00am 12.9 WSW 17 27 1007.6 - 0.2 - - - - - - -
15/12:51am 12.9 WSW 16 26 1007.5 - 0.2 - - - - - - -
15/12:30am 12.8 W 15 21 1007.4 - 0.2 - - - - - - -
15/12:00am 12.9 WSW 18 28 1007.0 - 0.2 - - - - - - -
 
Date/Time
EDT
Temp
°C
Wind Pressure Rain since
9am
mm
Weather Cloud Vis
km
Sea
Height
m
Swell
Dir  Spd
kts
Gust
kts
hPa Trend Height
m
Period
s
Dir
14/11:30pm 13.1 WSW 19 27 1006.6 - 0.2 - - - - - - -
14/11:01pm 13.0 WSW 19 31 1006.2 - 0.2 - - - - - - -
14/11:00pm 13.0 WSW 18 23 1006.2 - 0.2 - - - - - - -
14/10:30pm 13.1 WSW 17 27 1006.2 - 0.2 - - - - - - -
14/10:17pm 13.3 WSW 18 30 1006.0 - 0.2 - - - - - - -
14/10:00pm 13.4 WSW 13 18 1006.1 - 0.2 - - - - - - -
14/09:33pm 13.3 WSW 15 26 1005.5 - 0.2 - - - - - - -
14/09:30pm 13.3 WSW 12 23 1005.5 - 0.2 - - - - - - -
14/09:00pm 13.4 W 15 23 1004.9 - 0.2 - - - - - - -
14/08:37pm 14.0 WSW 21 39 1004.3 - 0.2 - - - - - - -
14/08:32pm 13.9 WSW 19 39 1004.2 - 0.2 - - - - - - -
14/08:30pm 13.9 WSW 19 39 1004.1 - 0.2 - - - - - - -
14/08:27pm 13.8 W 17 32 1004.0 - 0.2 - - - - - - -
14/08:00pm 14.3 W 18 27 1003.4 - 0.2 - - - - - - -
14/07:35pm 14.5 W 22 36 1002.9 - 0.2 - - - - - - -
14/07:30pm 14.4 WSW 22 29 1002.7 - 0.2 - - - - - - -
14/07:00pm 14.8 WSW 25 37 1001.9 - 0.2 - - - - - - -
14/06:34pm 14.9 WSW 20 31 1001.3 - 0.2 - - - - - - -
14/06:30pm 15.3 W 21 31 1001.1 - 0.2 - - - - - - -
14/06:00pm 15.0 WSW 20 31 1000.7 - 0.2 - - - - - - -
14/05:50pm 15.3 WSW 17 27 1000.5 - 0.2 - - - - - - -
14/05:30pm 15.2 WSW 18 25 1000.2 - 0.2 - - - - - - -
14/05:18pm 15.2 WSW 19 29 999.9 - 0.2 - - - - - - -
14/05:00pm 15.6 WSW 20 26 999.3 - 0.2 - - - - - - -
14/04:30pm 15.8 WSW 18 28 998.6 - 0.2 - - - - - - -
14/04:07pm 16.2 WSW 19 29 997.7 - 0.2 - - - - - - -
14/04:00pm 16.4 WSW 22 29 997.6 - 0.2 - - - - - - -

Other Formats:

Comma delimited format used in spreadsheet applications
http://www.bom.gov.au/fwo/IDT60701/IDT60701.94988.axf

JavaScript Object Notation format (JSON) in row-major order
http://www.bom.gov.au/fwo/IDT60701/IDT60701.94988.json